Colfax, IL

6:23 AM CST on January 25, 2015 (GMT -0600)
Rural Cooksville | Change Station
CLOSE
Current Station
Personal Weather Station
Location: Cooksville, IL
Elevation: 801 ft
Nearby Weather Stations
Active Advisory: Special Statement

Elev 801 ft 40.52 °N, 88.72 °W | Updated 20 minutes ago

Rain
Rain
34.0 °F
Feels Like 34 °F
N
3.0
Wind Variable Wind from NE
Gusts 4.0 mph

Today
High -- | Low -- °F
--% Chance of Precip.
Yesterday
High -- | Low -- °F
Precip. -- in
7:10 AM 5:03 PM
Waxing Crescent, 31% visible
Pressure 29.64 in
Visibility 9.0 miles
Clouds Clear
Windchill 34 °F
Dew Point 33 °F
Humidity 94%
Rainfall 0.00 in
Snow Depth Not available.
UV 0 out of 12
Pollen .10 out of 12
Air Quality Not available.
Flu Activity Not available.
METAR KBMI 251156Z 12003KT 9SM -RA CLR 02/01 A2961 RMK AO2 56004 60000 T00160005 10027 20005 UPB15E49RAB49 P0000 SLP037

More Conditions Fewer Conditions

Pressure 29.64 in
Visibility 9.0 miles
Clouds Clear
Windchill 34 °F
Dew Point 33 °F
Humidity 94%
Rainfall 0.00 in
Snow Depth Not available.
UV 0 out of 12
Pollen .10 out of 12
Air Quality Not available.
Flu Activity Not available.
METAR KBMI 251156Z 12003KT 9SM -RA CLR 02/01 A2961 RMK AO2 56004 60000 T00160005 10027 20005 UPB15E49RAB49 P0000 SLP037

More Conditions Fewer Conditions

10-Day Weather Forecast

Almanac

Astronomy

Jan. 25, 2015 Rise Set
Actual Time
Civil Twilight
Nautical Twilight
Astronomical Twilight
Moon
Length of Visible Light
Length of Day
Tomorrow will be .
, % of the Moon is Illuminated

Today's Extremes

State Highs State Lows

Community

WunderPhotos

Upload Photos

1,789,873 photos uploaded!

WunderBlogs® & News

Nearby

Air Quality

  Air Quality AQ Index Pollutant
Not available.

Snow Depth

Station Depth Elevation

Earthquake Activity

City Distance Mag. Time & Date
Minimum magnitude displayed is 2.5.

Coastal Water Temperatures

Place Temperature

Nearby Weather Stations